Time;durP1;ratioP1;P1;durP2;ratioP2;P2;SDS_P1;SDS_P2;PMS_P1;PMS_P2;Temp;Humidity;BMP_temperature;BMP_pressure;BME280_temperature;BME280_humidity;BME280_pressure;Samples;Min_cycle;Max_cycle;Signal;HPM_P1;HPM_P2
2023/04/22 00:01:16;;;;;;;0.77;0.77;;;;;9.10;95364.00;;;;5074152;28;20639;-62
2023/04/22 00:03:45;;;;;;;0.70;0.70;;;;;9.10;95357.00;;;;5075691;28;20603;-62
2023/04/22 00:06:12;;;;;;;0.50;0.50;;;;;9.20;95355.00;;;;5074297;28;20194;-62
2023/04/22 00:08:40;;;;;;;0.60;0.60;;;;;9.20;95363.00;;;;5074447;28;20230;-62
2023/04/22 00:11:07;;;;;;;0.80;0.80;;;;;9.10;95369.00;;;;5074031;28;20195;-62
2023/04/22 00:13:37;;;;;;;0.80;0.80;;;;;9.00;95365.00;;;;5074169;28;20230;-62
2023/04/22 00:16:08;;;;;;;0.63;0.63;;;;;9.10;95352.00;;;;5073889;28;20235;-62
2023/04/22 00:18:35;;;;;;;0.90;0.90;;;;;9.10;95357.00;;;;5056517;28;20255;-61
2023/04/22 00:21:05;;;;;;;0.70;0.70;;;;;9.10;95354.00;;;;5073944;28;20219;-62
2023/04/22 00:23:32;;;;;;;1.90;1.13;;;;;9.10;95354.00;;;;5074063;28;20272;-62
2023/04/22 00:26:00;;;;;;;0.87;0.87;;;;;9.10;95363.00;;;;5055936;28;20195;-62
2023/04/22 00:28:28;;;;;;;0.77;0.77;;;;;9.10;95352.00;;;;5073556;28;20222;-62
2023/04/22 00:30:57;;;;;;;0.90;0.90;;;;;9.10;95351.00;;;;5074373;28;20611;-62
2023/04/22 00:33:24;;;;;;;0.70;0.70;;;;;9.00;95359.00;;;;5074378;28;20294;-62
2023/04/22 00:35:53;;;;;;;0.80;0.80;;;;;8.90;95357.00;;;;5073631;28;20210;-62
2023/04/22 00:38:22;;;;;;;0.80;0.80;;;;;9.00;95348.00;;;;5073447;28;20188;-61
2023/04/22 00:40:49;;;;;;;0.80;0.80;;;;;9.00;95347.00;;;;5074558;28;20237;-62
2023/04/22 00:43:17;;;;;;;0.90;0.90;;;;;9.10;95342.00;;;;5073995;28;20200;-62
2023/04/22 00:45:46;;;;;;;0.80;0.80;;;;;9.10;95348.00;;;;5073869;28;20199;-62
2023/04/22 00:48:14;;;;;;;0.93;0.93;;;;;9.10;95344.00;;;;5073250;28;20207;-62
2023/04/22 00:50:41;;;;;;;0.70;0.70;;;;;9.10;95354.00;;;;5073671;28;20618;-62
2023/04/22 00:53:09;;;;;;;0.70;0.70;;;;;9.10;95352.00;;;;5074044;28;20191;-62
2023/04/22 00:55:38;;;;;;;0.60;0.60;;;;;9.10;95350.00;;;;5073268;28;20188;-62
2023/04/22 00:58:06;;;;;;;1.27;1.23;;;;;9.00;95352.00;;;;5073170;28;20188;-62
2023/04/22 01:00:34;;;;;;;0.73;0.73;;;;;9.00;95347.00;;;;5073710;28;20195;-62
2023/04/22 01:03:01;;;;;;;0.70;0.70;;;;;9.00;95352.00;;;;5073225;28;20271;-62
2023/04/22 01:05:31;;;;;;;0.97;0.97;;;;;9.00;95347.00;;;;5073494;28;20210;-62
2023/04/22 01:07:59;;;;;;;0.77;0.77;;;;;9.00;95344.00;;;;5073280;28;20212;-62
2023/04/22 01:10:27;;;;;;;0.90;0.90;;;;;9.00;95339.00;;;;5073027;28;20218;-62
2023/04/22 01:12:55;;;;;;;0.80;0.80;;;;;9.10;95338.00;;;;5073275;28;20214;-62
2023/04/22 01:15:23;;;;;;;0.70;0.70;;;;;9.10;95336.00;;;;5073081;28;20558;-62
2023/04/22 01:17:51;;;;;;;1.10;1.10;;;;;9.00;95340.00;;;;5073305;28;20187;-62
2023/04/22 01:20:19;;;;;;;1.07;1.07;;;;;9.00;95353.00;;;;5072757;28;20219;-62
2023/04/22 01:22:48;;;;;;;0.80;0.80;;;;;9.00;95346.00;;;;5072745;28;20196;-62
2023/04/22 01:25:17;;;;;;;0.90;0.90;;;;;8.90;95348.00;;;;5072914;28;20232;-62
2023/04/22 01:27:44;;;;;;;0.73;0.73;;;;;9.00;95350.00;;;;5072841;28;20199;-61
2023/04/22 01:30:13;;;;;;;0.70;0.70;;;;;8.90;95363.00;;;;5073129;28;20690;-62
2023/04/22 01:32:40;;;;;;;0.80;0.80;;;;;8.90;95356.00;;;;5073355;28;20191;-62
2023/04/22 01:35:08;;;;;;;0.67;0.67;;;;;8.90;95357.00;;;;5073476;28;20199;-62
2023/04/22 01:37:36;;;;;;;0.80;0.80;;;;;8.90;95348.00;;;;5072821;28;20245;-62
2023/04/22 01:40:04;;;;;;;1.07;1.00;;;;;8.90;95357.00;;;;5072744;28;20211;-62
2023/04/22 01:42:33;;;;;;;0.70;0.70;;;;;8.90;95360.00;;;;5055108;28;20286;-62
2023/04/22 01:45:01;;;;;;;0.60;0.60;;;;;8.90;95356.00;;;;5073019;28;20249;-62
2023/04/22 01:47:28;;;;;;;0.80;0.80;;;;;8.90;95354.00;;;;5073226;28;20191;-62
2023/04/22 01:49:56;;;;;;;1.33;1.30;;;;;8.90;95362.00;;;;5072583;28;20230;-61
2023/04/22 01:52:23;;;;;;;1.00;1.00;;;;;8.90;95359.00;;;;5054605;28;20195;-62
2023/04/22 01:54:51;;;;;;;0.50;0.50;;;;;8.80;95360.00;;;;5072703;28;20654;-62
2023/04/22 01:57:18;;;;;;;0.60;0.60;;;;;8.80;95361.00;;;;5072865;28;20207;-62
2023/04/22 01:59:49;;;;;;;1.23;1.13;;;;;8.70;95351.00;;;;5072741;28;20207;-63
2023/04/22 02:02:16;;;;;;;2.27;1.53;;;;;8.70;95357.00;;;;5054747;28;20245;-61
2023/04/22 02:04:44;;;;;;;0.80;0.80;;;;;8.60;95362.00;;;;5072678;28;20192;-61
2023/04/22 02:07:11;;;;;;;1.13;1.13;;;;;8.60;95355.00;;;;5073102;28;20196;-61
2023/04/22 02:09:39;;;;;;;0.70;0.70;;;;;8.60;95357.00;;;;5072422;28;20227;-61
2023/04/22 02:12:06;;;;;;;0.80;0.80;;;;;8.60;95354.00;;;;5072731;28;20708;-61
2023/04/22 02:14:34;;;;;;;0.87;0.87;;;;;8.60;95352.00;;;;5072475;28;20191;-62
2023/04/22 02:17:03;;;;;;;0.73;0.73;;;;;8.60;95351.00;;;;5072401;28;20191;-61
2023/04/22 02:19:30;;;;;;;0.60;0.60;;;;;8.60;95350.00;;;;5072378;28;20317;-62
2023/04/22 02:21:58;;;;;;;1.07;1.07;;;;;8.60;95345.00;;;;5073368;28;20249;-61
2023/04/22 02:24:25;;;;;;;0.57;0.57;;;;;8.60;95349.00;;;;5072613;28;20199;-61
2023/04/22 02:26:53;;;;;;;0.83;0.83;;;;;8.60;95359.00;;;;5072643;28;20305;-61
2023/04/22 02:29:20;;;;;;;0.70;0.70;;;;;8.60;95358.00;;;;5072513;28;20594;-61
2023/04/22 02:31:48;;;;;;;0.90;0.90;;;;;8.60;95359.00;;;;5072414;28;20187;-61
2023/04/22 02:34:16;;;;;;;1.00;1.00;;;;;8.60;95360.00;;;;5074285;28;20198;-61
2023/04/22 02:36:44;;;;;;;0.93;0.93;;;;;8.40;95356.00;;;;5076078;28;20200;-61
2023/04/22 02:39:11;;;;;;;0.80;0.80;;;;;8.40;95360.00;;;;5076002;28;20207;-61
2023/04/22 02:41:39;;;;;;;0.60;0.60;;;;;8.30;95348.00;;;;5075800;28;20241;-61
2023/04/22 02:44:06;;;;;;;0.60;0.60;;;;;8.30;95355.00;;;;5076596;28;20195;-61
2023/04/22 02:46:33;;;;;;;0.90;0.90;;;;;8.40;95348.00;;;;5075694;28;20263;-61
2023/04/22 02:49:01;;;;;;;0.60;0.60;;;;;8.40;95353.00;;;;5075703;28;20226;-61
2023/04/22 02:51:31;;;;;;;0.80;0.80;;;;;8.40;95345.00;;;;5075598;28;20751;-62
2023/04/22 02:53:59;;;;;;;1.30;1.20;;;;;8.20;95345.00;;;;5075531;28;20196;-61
2023/04/22 02:56:26;;;;;;;0.60;0.60;;;;;8.20;95355.00;;;;5075785;28;20685;-61
2023/04/22 02:58:53;;;;;;;0.70;0.70;;;;;8.30;95347.00;;;;5075554;28;20247;-61
2023/04/22 03:01:21;;;;;;;0.87;0.87;;;;;8.30;95345.00;;;;5057652;28;20655;-61
2023/04/22 03:03:48;;;;;;;0.93;0.93;;;;;8.30;95345.00;;;;5075812;28;20195;-62
2023/04/22 03:06:16;;;;;;;0.90;0.90;;;;;8.30;95356.00;;;;5075633;28;20550;-61
2023/04/22 03:08:45;;;;;;;0.50;0.50;;;;;8.30;95358.00;;;;5075318;28;20626;-62
2023/04/22 03:11:13;;;;;;;0.60;0.60;;;;;8.30;95365.00;;;;5075449;28;20199;-61
2023/04/22 03:13:40;;;;;;;0.63;0.63;;;;;8.30;95358.00;;;;5075989;28;20195;-61
2023/04/22 03:16:08;;;;;;;0.87;0.87;;;;;8.30;95350.00;;;;5075412;28;20561;-61
2023/04/22 03:18:35;;;;;;;1.40;1.03;;;;;8.30;95353.00;;;;5057457;28;20231;-61
2023/04/22 03:21:02;;;;;;;0.80;0.80;;;;;8.30;95357.00;;;;5057113;28;20207;-61
2023/04/22 03:23:30;;;;;;;0.77;0.77;;;;;8.10;95363.00;;;;5074984;28;20226;-61
2023/04/22 03:25:59;;;;;;;0.70;0.70;;;;;8.00;95365.00;;;;5074988;28;20191;-61
2023/04/22 03:28:26;;;;;;;1.73;1.00;;;;;8.00;95361.00;;;;5056676;28;20725;-61
2023/04/22 03:30:53;;;;;;;0.60;0.60;;;;;8.00;95372.00;;;;5075136;28;20531;-61
2023/04/22 03:33:23;;;;;;;0.97;0.93;;;;;8.00;95350.00;;;;5075179;28;20248;-61
2023/04/22 03:35:53;;;;;;;1.00;1.00;;;;;8.10;95361.00;;;;5074702;28;20199;-61
2023/04/22 03:38:21;;;;;;;1.00;1.00;;;;;8.00;95359.00;;;;5074496;28;20197;-61
2023/04/22 03:40:48;;;;;;;1.03;1.03;;;;;8.10;95363.00;;;;5074666;28;20257;-61
2023/04/22 03:43:17;;;;;;;0.60;0.60;;;;;7.90;95362.00;;;;5075303;28;20245;-61
2023/04/22 03:45:45;;;;;;;6.63;1.30;;;;;7.90;95358.00;;;;5074254;28;20667;-61
2023/04/22 03:48:12;;;;;;;0.77;0.77;;;;;7.90;95350.00;;;;5074662;28;20199;-61
2023/04/22 03:50:40;;;;;;;1.00;1.00;;;;;8.00;95356.00;;;;5075680;28;20265;-61
2023/04/22 03:53:07;;;;;;;1.17;1.17;;;;;8.00;95354.00;;;;5074413;28;20195;-61
2023/04/22 03:55:35;;;;;;;0.97;0.97;;;;;7.80;95357.00;;;;5074595;28;20242;-61
2023/04/22 03:58:02;;;;;;;0.90;0.90;;;;;7.80;95350.00;;;;5075345;28;20192;-61
2023/04/22 04:00:31;;;;;;;0.70;0.70;;;;;7.80;95352.00;;;;5075908;28;20241;-61
2023/04/22 04:02:58;;;;;;;0.90;0.90;;;;;7.80;95354.00;;;;5074168;28;20720;-61
2023/04/22 04:05:26;;;;;;;0.70;0.70;;;;;7.80;95351.00;;;;5075153;28;20256;-61
2023/04/22 04:07:53;;;;;;;1.03;1.03;;;;;7.90;95346.00;;;;5074090;28;20191;-61
2023/04/22 04:10:20;;;;;;;1.00;1.00;;;;;7.90;95357.00;;;;5074300;28;20218;-61
2023/04/22 04:12:48;;;;;;;1.73;1.63;;;;;7.80;95341.00;;;;5074513;28;20238;-61
2023/04/22 04:15:18;;;;;;;0.97;0.97;;;;;7.80;95350.00;;;;5073873;28;20191;-61
2023/04/22 04:17:46;;;;;;;1.07;1.07;;;;;7.90;95353.00;;;;5073828;28;20270;-61
2023/04/22 04:20:14;;;;;;;0.60;0.60;;;;;7.90;95340.00;;;;5056255;28;20223;-61
2023/04/22 04:22:42;;;;;;;0.70;0.70;;;;;7.80;95349.00;;;;5074004;28;20191;-61
2023/04/22 04:25:10;;;;;;;0.80;0.80;;;;;7.80;95343.00;;;;5074334;28;20193;-61
2023/04/22 04:27:40;;;;;;;0.70;0.70;;;;;7.90;95349.00;;;;5073998;28;20563;-61
2023/04/22 04:30:09;;;;;;;0.60;0.60;;;;;7.90;95354.00;;;;5074012;28;20645;-61
2023/04/22 04:32:36;;;;;;;0.70;0.70;;;;;7.80;95352.00;;;;5074225;28;20191;-61
2023/04/22 04:35:08;;;;;;;1.00;1.00;;;;;7.80;95342.00;;;;5073556;28;20199;-63
2023/04/22 04:37:39;;;;;;;2.10;1.10;;;;;7.80;95342.00;;;;5074149;28;20202;-61
2023/04/22 04:40:09;;;;;;;0.60;0.60;;;;;7.80;95332.00;;;;5074096;28;20219;-63
2023/04/22 04:42:36;;;;;;;0.70;0.70;;;;;7.80;95334.00;;;;5073469;28;20198;-61
2023/04/22 04:45:05;;;;;;;0.73;0.73;;;;;7.80;95332.00;;;;5074330;28;20180;-61
2023/04/22 04:47:32;;;;;;;0.93;0.93;;;;;7.80;95332.00;;;;5074108;28;20199;-62
2023/04/22 04:50:00;;;;;;;1.00;1.00;;;;;7.80;95339.00;;;;5073582;28;20223;-61
2023/04/22 04:52:30;;;;;;;0.70;0.70;;;;;7.80;95341.00;;;;5073388;28;20187;-61
2023/04/22 04:54:58;;;;;;;1.63;0.93;;;;;7.80;95333.00;;;;5073846;28;20193;-61
2023/04/22 04:57:25;;;;;;;0.67;0.67;;;;;7.80;95335.00;;;;5072689;28;20282;-61
2023/04/22 04:59:52;;;;;;;1.03;1.03;;;;;7.80;95333.00;;;;5073153;28;20598;-61
2023/04/22 05:02:20;;;;;;;1.20;1.20;;;;;7.80;95339.00;;;;5073388;28;20191;-61
2023/04/22 05:04:47;;;;;;;0.70;0.70;;;;;7.80;95337.00;;;;5073663;28;20195;-61
2023/04/22 05:07:15;;;;;;;0.60;0.60;;;;;7.80;95331.00;;;;5073409;28;20562;-61
2023/04/22 05:09:44;;;;;;;0.67;0.67;;;;;7.80;95335.00;;;;5073000;28;20219;-61
2023/04/22 05:12:11;;;;;;;0.70;0.70;;;;;7.80;95340.00;;;;5055134;28;20319;-61
2023/04/22 05:14:39;;;;;;;0.93;0.93;;;;;7.80;95343.00;;;;5073118;28;20195;-61
2023/04/22 05:17:07;;;;;;;0.83;0.83;;;;;7.80;95342.00;;;;5073237;28;20195;-62
2023/04/22 05:19:34;;;;;;;1.43;1.03;;;;;7.90;95351.00;;;;5072851;28;20218;-61
2023/04/22 05:22:02;;;;;;;0.93;0.93;;;;;7.90;95356.00;;;;5073022;28;20195;-61
2023/04/22 05:24:29;;;;;;;1.20;1.20;;;;;8.00;95338.00;;;;5073267;28;20198;-61
2023/04/22 05:26:58;;;;;;;0.90;0.90;;;;;8.00;95346.00;;;;5073753;28;20188;-61
2023/04/22 05:29:26;;;;;;;0.90;0.90;;;;;8.00;95347.00;;;;5072838;28;20226;-62
2023/04/22 05:31:53;;;;;;;0.80;0.80;;;;;7.60;95352.00;;;;5073655;28;20203;-61
2023/04/22 05:34:20;;;;;;;2.63;1.23;;;;;7.90;95355.00;;;;5072835;28;20195;-61
2023/04/22 05:36:48;;;;;;;1.07;1.00;;;;;7.90;95361.00;;;;5072957;28;20195;-62
2023/04/22 05:39:15;;;;;;;0.60;0.60;;;;;7.90;95355.00;;;;5073068;28;20243;-62
2023/04/22 05:41:43;;;;;;;0.60;0.60;;;;;8.00;95359.00;;;;5073719;28;20187;-62
2023/04/22 05:44:12;;;;;;;1.30;1.30;;;;;8.10;95354.00;;;;5073081;28;20196;-62
2023/04/22 05:46:39;;;;;;;0.70;0.70;;;;;8.30;95355.00;;;;5054785;28;20253;-62
2023/04/22 05:49:07;;;;;;;0.80;0.80;;;;;8.30;95355.00;;;;5055789;28;20253;-62
2023/04/22 05:51:34;;;;;;;1.07;1.07;;;;;8.40;95358.00;;;;5073245;28;20219;-62
2023/04/22 05:54:02;;;;;;;1.07;1.07;;;;;8.30;95363.00;;;;5072916;28;20192;-62
2023/04/22 05:56:37;;;;;;;0.70;0.70;;;;;8.30;95368.00;;;;5072624;28;20198;-61
2023/04/22 05:59:04;;;;;;;0.70;0.70;;;;;8.30;95364.00;;;;5054650;28;20702;-62
2023/04/22 06:01:33;;;;;;;2.60;1.63;;;;;8.50;95371.00;;;;5072831;28;20690;-62
2023/04/22 06:04:00;;;;;;;0.63;0.63;;;;;8.60;95369.00;;;;5072824;28;20196;-62
2023/04/22 06:06:28;;;;;;;1.03;1.03;;;;;8.80;95372.00;;;;5072805;28;20651;-61
2023/04/22 06:08:55;;;;;;;3.33;1.40;;;;;8.90;95373.00;;;;5075549;28;20211;-61
2023/04/22 06:11:23;;;;;;;0.90;0.90;;;;;9.00;95377.00;;;;5076243;28;20211;-61
2023/04/22 06:13:51;;;;;;;1.43;1.10;;;;;9.00;95375.00;;;;5076585;28;20195;-62
2023/04/22 06:16:19;;;;;;;0.97;0.97;;;;;9.10;95369.00;;;;5076187;28;20215;-62
2023/04/22 06:18:48;;;;;;;0.90;0.90;;;;;9.10;95381.00;;;;5076587;28;20293;-62
2023/04/22 06:21:15;;;;;;;1.50;1.43;;;;;9.00;95383.00;;;;5075754;22;20236;-61
2023/04/22 06:23:43;;;;;;;1.73;1.63;;;;;9.00;95375.00;;;;5055911;28;20192;-62
2023/04/22 06:26:10;;;;;;;0.80;0.80;;;;;9.00;95374.00;;;;5038377;28;20780;-62
2023/04/22 06:28:38;;;;;;;0.83;0.83;;;;;9.00;95390.00;;;;5056462;28;20196;-61
2023/04/22 06:31:06;;;;;;;0.63;0.63;;;;;8.90;95391.00;;;;5055925;28;20228;-61
2023/04/22 06:33:33;;;;;;;0.60;0.60;;;;;9.00;95380.00;;;;5055952;28;20196;-62
2023/04/22 06:36:03;;;;;;;1.00;1.00;;;;;9.10;95380.00;;;;5056100;28;20196;-62
2023/04/22 06:38:31;;;;;;;0.50;0.50;;;;;9.00;95373.00;;;;5038619;28;20725;-62
2023/04/22 06:40:58;;;;;;;0.93;0.93;;;;;9.10;95368.00;;;;5055571;28;20208;-61
2023/04/22 06:43:26;;;;;;;1.57;1.47;;;;;9.20;95369.00;;;;5055846;28;20196;-62
2023/04/22 06:45:53;;;;;;;0.50;0.50;;;;;9.30;95368.00;;;;5055640;28;20196;-62
2023/04/22 06:48:20;;;;;;;0.67;0.67;;;;;9.40;95373.00;;;;5056027;28;20200;-61
2023/04/22 06:50:48;;;;;;;0.60;0.60;;;;;9.40;95373.00;;;;5055547;28;20265;-61
2023/04/22 06:53:17;;;;;;;1.40;1.30;;;;;9.50;95369.00;;;;5055443;28;20199;-62
2023/04/22 06:55:44;;;;;;;0.70;0.70;;;;;9.40;95360.00;;;;5055416;28;20200;-62
2023/04/22 06:58:11;;;;;;;0.70;0.70;;;;;9.40;95362.00;;;;5055732;28;20192;-61
2023/04/22 07:00:39;;;;;;;1.17;1.17;;;;;9.40;95359.00;;;;5055131;28;20215;-61
2023/04/22 07:03:06;;;;;;;0.77;0.77;;;;;9.40;95351.00;;;;5056087;28;20203;-61
2023/04/22 07:05:34;;;;;;;0.97;0.97;;;;;9.50;95355.00;;;;5056148;28;20196;-60
2023/04/22 07:08:01;;;;;;;0.60;0.60;;;;;9.60;95348.00;;;;5055204;28;20710;-62
2023/04/22 07:10:30;;;;;;;0.80;0.80;;;;;9.60;95352.00;;;;5037815;28;20224;-61
2023/04/22 07:12:57;;;;;;;0.90;0.90;;;;;9.50;95352.00;;;;5055142;28;20192;-61
2023/04/22 07:15:25;;;;;;;1.10;1.10;;;;;9.60;95366.00;;;;5055305;28;20196;-62
2023/04/22 07:17:52;;;;;;;0.93;0.93;;;;;9.60;95363.00;;;;5055084;28;20192;-61
2023/04/22 07:20:20;;;;;;;0.83;0.83;;;;;9.60;95363.00;;;;5055167;28;20714;-61
2023/04/22 07:22:47;;;;;;;1.03;1.03;;;;;9.70;95372.00;;;;5055024;28;20184;-61
2023/04/22 07:25:15;;;;;;;0.60;0.60;;;;;9.70;95375.00;;;;5036932;28;20215;-62
2023/04/22 07:27:43;;;;;;;0.80;0.73;;;;;9.70;95381.00;;;;5054816;28;20192;-62
2023/04/22 07:30:12;;;;;;;0.70;0.70;;;;;9.80;95375.00;;;;5055395;28;20582;-63
2023/04/22 07:32:40;;;;;;;0.97;0.97;;;;;9.90;95370.00;;;;5054964;28;20250;-62
2023/04/22 07:35:08;;;;;;;0.80;0.80;;;;;10.10;95368.00;;;;5054906;28;20242;-62
2023/04/22 07:37:35;;;;;;;1.00;1.00;;;;;10.30;95372.00;;;;5055002;28;20192;-62
2023/04/22 07:40:04;;;;;;;2.13;2.03;;;;;10.50;95382.00;;;;5055116;28;20212;-61
2023/04/22 07:42:32;;;;;;;0.80;0.80;;;;;10.60;95377.00;;;;5054531;28;20246;-61
2023/04/22 07:45:00;;;;;;;1.00;1.00;;;;;10.80;95374.00;;;;5055019;28;20195;-62
2023/04/22 07:47:28;;;;;;;2.40;2.20;;;;;11.00;95381.00;;;;5054394;28;20196;-60
2023/04/22 07:49:55;;;;;;;0.90;0.90;;;;;10.90;95371.00;;;;5054395;28;20216;-62
2023/04/22 07:52:23;;;;;;;0.70;0.70;;;;;11.10;95371.00;;;;5036443;28;20250;-63
2023/04/22 07:54:50;;;;;;;3.23;2.07;;;;;11.20;95371.00;;;;5054877;28;20192;-63
2023/04/22 07:57:20;;;;;;;0.60;0.60;;;;;11.30;95367.00;;;;5054502;28;20215;-62
2023/04/22 07:59:48;;;;;;;1.00;1.00;;;;;11.40;95369.00;;;;5055564;28;20302;-60
2023/04/22 08:02:16;;;;;;;1.37;1.27;;;;;11.60;95362.00;;;;5054428;28;20204;-63
2023/04/22 08:04:44;;;;;;;1.00;1.00;;;;;11.80;95369.00;;;;5054340;28;20660;-62
2023/04/22 08:07:12;;;;;;;1.13;1.13;;;;;12.00;95361.00;;;;5054438;28;20192;-62
2023/04/22 08:09:39;;;;;;;0.83;0.83;;;;;12.20;95361.00;;;;5054006;28;20203;-61
2023/04/22 08:12:06;;;;;;;0.83;0.83;;;;;12.60;95357.00;;;;5054262;28;20211;-61
2023/04/22 08:14:34;;;;;;;0.70;0.70;;;;;12.80;95355.00;;;;5054282;28;20199;-61
2023/04/22 08:17:01;;;;;;;1.00;1.00;;;;;12.80;95354.00;;;;5054423;28;20200;-61
2023/04/22 08:19:30;;;;;;;0.80;0.80;;;;;13.00;95355.00;;;;5053791;28;20196;-61
2023/04/22 08:21:58;;;;;;;1.00;1.00;;;;;13.00;95359.00;;;;5054049;28;20206;-63
2023/04/22 08:24:25;;;;;;;0.80;0.80;;;;;13.20;95356.00;;;;5053830;28;20649;-60
2023/04/22 08:26:53;;;;;;;0.60;0.60;;;;;13.30;95349.00;;;;5054183;28;20227;-62
2023/04/22 08:29:23;;;;;;;0.87;0.87;;;;;13.60;95340.00;;;;5053663;28;20663;-63
2023/04/22 08:31:50;;;;;;;0.60;0.60;;;;;13.90;95345.00;;;;5053308;28;20283;-63
2023/04/22 08:34:18;;;;;;;1.10;1.10;;;;;14.20;95340.00;;;;5053780;28;20279;-63
2023/04/22 08:36:46;;;;;;;0.87;0.87;;;;;14.30;95338.00;;;;5053448;28;20202;-62
2023/04/22 08:39:14;;;;;;;0.60;0.60;;;;;14.70;95348.00;;;;5053585;28;20192;-63
2023/04/22 08:41:43;;;;;;;1.90;0.70;;;;;14.80;95341.00;;;;5054001;28;20649;-63
2023/04/22 08:44:11;;;;;;;0.60;0.60;;;;;15.00;95342.00;;;;5035560;28;20219;-63
2023/04/22 08:46:40;;;;;;;0.60;0.60;;;;;15.10;95339.00;;;;5053494;28;20200;-63
2023/04/22 08:49:08;;;;;;;0.50;0.50;;;;;15.20;95336.00;;;;5053566;28;20188;-63
2023/04/22 08:51:36;;;;;;;0.90;0.90;;;;;15.40;95343.00;;;;5053551;28;20224;-62
2023/04/22 08:54:06;;;;;;;0.80;0.80;;;;;15.40;95343.00;;;;5053334;28;20202;-63
2023/04/22 08:56:34;;;;;;;0.63;0.63;;;;;15.50;95353.00;;;;5053710;28;20188;-64
2023/04/22 08:59:02;;;;;;;0.60;0.60;;;;;15.60;95346.00;;;;5053542;28;20278;-62
2023/04/22 09:01:32;;;;;;;0.60;0.60;;;;;15.80;95347.00;;;;5053588;28;20258;-62
2023/04/22 09:04:00;;;;;;;0.60;0.60;;;;;15.90;95331.00;;;;5035301;28;20200;-63
2023/04/22 09:06:28;;;;;;;0.60;0.60;;;;;16.10;95333.00;;;;5053644;28;20192;-63
2023/04/22 09:08:57;;;;;;;1.70;1.23;;;;;16.10;95335.00;;;;5053114;28;20236;-60
2023/04/22 09:11:27;;;;;;;0.97;0.87;;;;;16.40;95331.00;;;;5053492;28;20216;-63
2023/04/22 09:13:55;;;;;;;0.83;0.83;;;;;16.60;95327.00;;;;5052984;28;20200;-62
2023/04/22 09:16:22;;;;;;;0.70;0.70;;;;;16.70;95326.00;;;;5052991;28;20188;-63
2023/04/22 09:18:51;;;;;;;0.60;0.60;;;;;17.00;95318.00;;;;5053202;28;20721;-63
2023/04/22 09:21:18;;;;;;;0.70;0.70;;;;;17.10;95314.00;;;;5053156;28;20261;-62
2023/04/22 09:23:51;;;;;;;7.33;1.47;;;;;17.20;95308.00;;;;5053495;28;20263;-65
2023/04/22 09:26:40;;;;;;;0.43;0.43;;;;;17.40;95312.00;;;;5053198;28;20180;-63
2023/04/22 09:29:13;;;;;;;0.50;0.50;;;;;17.50;95311.00;;;;5053120;28;20208;-62
2023/04/22 09:31:40;;;;;;;0.60;0.60;;;;;17.60;95316.00;;;;5053180;28;20223;-63
2023/04/22 09:34:08;;;;;;;0.70;0.70;;;;;17.70;95317.00;;;;5053228;28;20184;-61
2023/04/22 09:36:36;;;;;;;1.10;0.97;;;;;17.90;95310.00;;;;5053030;28;20196;-61
2023/04/22 09:39:08;;;;;;;0.77;0.77;;;;;18.40;95307.00;;;;5053198;28;20187;-63
2023/04/22 09:41:38;;;;;;;0.50;0.50;;;;;18.30;95302.00;;;;5052897;28;20569;-63
2023/04/22 09:44:10;;;;;;;0.90;0.90;;;;;18.40;95300.00;;;;5057007;28;20196;-61
2023/04/22 09:46:37;;;;;;;0.60;0.60;;;;;18.70;95299.00;;;;5056908;28;20705;-61
2023/04/22 09:49:05;;;;;;;0.40;0.40;;;;;18.90;95306.00;;;;5057101;28;20210;-61
2023/04/22 09:51:33;;;;;;;0.30;0.30;;;;;19.10;95304.00;;;;5056662;28;20228;-61
2023/04/22 09:54:03;;;;;;;0.53;0.53;;;;;18.90;95301.00;;;;5057116;28;20203;-62
2023/04/22 09:56:47;;;;;;;1.97;1.23;;;;;19.00;95293.00;;;;5056944;28;20180;-62
2023/04/22 09:59:15;;;;;;;0.60;0.60;;;;;19.30;95298.00;;;;5057323;28;20180;-63
2023/04/22 10:01:43;;;;;;;2.50;0.93;;;;;19.40;95299.00;;;;5056481;28;20208;-62
2023/04/22 10:04:13;;;;;;;3.50;1.23;;;;;19.50;95290.00;;;;5056763;28;20275;-62
2023/04/22 10:06:41;;;;;;;0.63;0.63;;;;;19.80;95297.00;;;;5056369;28;20204;-61
2023/04/22 10:09:09;;;;;;;0.40;0.40;;;;;19.80;95283.00;;;;5038335;28;20200;-61
2023/04/22 10:11:36;;;;;;;0.80;0.80;;;;;20.30;95276.00;;;;5056153;28;20227;-63
2023/04/22 10:14:05;;;;;;;1.10;1.10;;;;;20.30;95276.00;;;;5056617;28;20283;-61
2023/04/22 10:16:35;;;;;;;0.73;0.73;;;;;20.00;95284.00;;;;5056586;28;20215;-61
2023/04/22 10:19:06;;;;;;;0.80;0.80;;;;;20.20;95284.00;;;;5056435;28;20670;-64
2023/04/22 10:21:34;;;;;;;0.77;0.77;;;;;19.70;95287.00;;;;5056007;28;20235;-62
2023/04/22 10:24:03;;;;;;;0.50;0.50;;;;;19.40;95287.00;;;;5056155;28;20690;-63
2023/04/22 10:26:47;;;;;;;0.90;0.90;;;;;19.30;95287.00;;;;5056435;28;20200;-62
2023/04/22 10:29:19;;;;;;;0.47;0.47;;;;;19.60;95295.00;;;;5056728;28;20180;-62
2023/04/22 10:31:51;;;;;;;0.70;0.70;;;;;19.70;95291.00;;;;5056280;28;20224;-61
2023/04/22 10:34:19;;;;;;;0.40;0.40;;;;;19.70;95293.00;;;;5038386;28;20202;-62
2023/04/22 10:37:01;;;;;;;1.93;1.17;;;;;19.70;95295.00;;;;5056184;28;20198;-62
2023/04/22 10:39:29;;;;;;;0.50;0.50;;;;;19.80;95296.00;;;;5056203;28;20204;-61
2023/04/22 10:42:09;;;;;;;0.60;0.60;;;;;19.60;95289.00;;;;5056242;28;20189;-62
2023/04/22 10:44:49;;;;;;;0.63;0.63;;;;;19.70;95281.00;;;;5056388;28;20188;-62
2023/04/22 10:47:28;;;;;;;1.53;0.90;;;;;20.00;95289.00;;;;5055838;28;20188;-62
2023/04/22 10:50:16;;;;;;;0.67;0.67;;;;;20.10;95274.00;;;;5056033;28;20572;-61
2023/04/22 10:52:48;;;;;;;0.60;0.60;;;;;20.50;95292.00;;;;5056041;28;20219;-61
2023/04/22 10:55:15;;;;;;;0.60;0.60;;;;;20.40;95282.00;;;;5054849;28;20263;-61
2023/04/22 10:57:44;;;;;;;0.90;0.90;;;;;20.60;95275.00;;;;5055420;28;20204;-60
2023/04/22 11:00:31;;;;;;;0.50;0.50;;;;;20.90;95280.00;;;;5055625;28;20216;-62
2023/04/22 11:03:13;;;;;;;0.70;0.70;;;;;20.80;95309.00;;;;5055463;28;20636;-60
2023/04/22 11:05:41;;;;;;;0.57;0.57;;;;;20.80;95283.00;;;;5055548;28;20596;-62
2023/04/22 11:08:12;;;;;;;0.60;0.60;;;;;21.30;95264.00;;;;5055312;28;20200;-62
2023/04/22 11:10:42;;;;;;;0.60;0.60;;;;;21.60;95288.00;;;;5055338;28;20212;-62
2023/04/22 11:13:12;;;;;;;0.60;0.60;;;;;21.80;95302.00;;;;5055098;28;20219;-62
2023/04/22 11:15:43;;;;;;;0.70;0.70;;;;;21.90;95316.00;;;;5056308;28;20184;-61
2023/04/22 11:18:21;;;;;;;0.73;0.73;;;;;21.50;95306.00;;;;5055201;28;20185;-61
2023/04/22 11:20:52;;;;;;;0.52;0.52;;;;;21.40;95292.00;;;;5054805;28;20223;-62
2023/04/22 11:23:22;;;;;;;4.38;1.48;;;;;21.30;95285.00;;;;5055291;28;20184;-64
2023/04/22 11:25:53;;;;;;;0.50;0.50;;;;;20.60;95313.00;;;;5056115;28;20242;-63
2023/04/22 11:28:21;;;;;;;1.20;1.10;;;;;21.00;95296.00;;;;5057915;28;20236;-67
2023/04/22 11:30:51;;;;;;;0.52;0.52;;;;;20.90;95284.00;;;;5059693;28;20656;-62
2023/04/22 11:33:18;;;;;;;0.50;0.50;;;;;21.00;95301.00;;;;5057549;28;20211;-65
2023/04/22 11:35:48;;;;;;;0.52;0.52;;;;;21.00;95299.00;;;;5057869;28;20192;-64
2023/04/22 11:38:16;;;;;;;1.05;0.95;;;;;21.10;95309.00;;;;5055313;28;20196;-64
2023/04/22 11:40:44;;;;;;;0.55;0.55;;;;;20.70;95301.00;;;;5057399;28;20212;-61
2023/04/22 11:43:12;;;;;;;0.73;0.73;;;;;21.20;95289.00;;;;5061817;28;20193;-64
2023/04/22 11:45:40;;;;;;;0.52;0.52;;;;;21.40;95290.00;;;;5058871;28;20196;-63
2023/04/22 11:48:11;;;;;;;0.75;0.75;;;;;21.40;95306.00;;;;5054818;28;20201;-65
2023/04/22 11:50:40;;;;;;;2.17;1.15;;;;;20.60;95312.00;;;;5054631;28;20290;-64
2023/04/22 11:53:15;;;;;;;0.77;0.77;;;;;20.60;95311.00;;;;5037684;28;20224;-64
2023/04/22 11:55:43;;;;;;;0.70;0.70;;;;;20.10;95310.00;;;;5056171;28;20235;-62
2023/04/22 11:58:12;;;;;;;1.65;0.75;;;;;19.70;95298.00;;;;5041614;28;20326;-64
2023/04/22 12:00:42;;;;;;;0.70;0.70;;;;;20.70;95308.00;;;;5057945;28;20705;-63
2023/04/22 12:03:15;;;;;;;1.23;0.80;;;;;20.50;95317.00;;;;5054267;28;20191;-63
2023/04/22 12:05:44;;;;;;;0.60;0.60;;;;;20.90;95321.00;;;;5054738;28;20184;-62
2023/04/22 12:08:13;;;;;;;2.40;0.80;;;;;20.30;95335.00;;;;5054836;28;20200;-62
2023/04/22 12:10:43;;;;;;;0.50;0.50;;;;;20.30;95320.00;;;;5054785;28;20406;-62
2023/04/22 12:13:17;;;;;;;0.63;0.63;;;;;20.10;95326.00;;;;5036059;28;20223;-63
2023/04/22 12:15:44;;;;;;;0.60;0.60;;;;;19.80;95324.00;;;;5054442;28;20185;-62
2023/04/22 12:18:13;;;;;;;0.50;0.50;;;;;19.30;95322.00;;;;5054645;28;20192;-61
2023/04/22 12:20:42;;;;;;;0.50;0.50;;;;;19.60;95322.00;;;;5071012;22;20228;-63
2023/04/22 12:23:14;;;;;;;3.63;1.33;;;;;20.00;95311.00;;;;5053896;28;20177;-63
2023/04/22 12:25:44;;;;;;;0.70;0.70;;;;;20.10;95324.00;;;;5054091;28;20200;-64
2023/04/22 12:28:13;;;;;;;0.47;0.47;;;;;20.00;95318.00;;;;5054070;28;20188;-63
2023/04/22 12:30:40;;;;;;;0.50;0.50;;;;;19.70;95332.00;;;;5035987;28;20200;-63